Time;durP1;ratioP1;P1;durP2;ratioP2;P2;SDS_P1;SDS_P2;PMS_P1;PMS_P2;Temp;Humidity;BMP_temperature;BMP_pressure;BME280_temperature;BME280_humidity;BME280_pressure;Samples;Min_cycle;Max_cycle;Signal;HPM_P1;HPM_P2
2023/03/31 00:00:13;;;;;;;25.57;22.97;;;;;20.50;99418.00;;;;2087133;28;20213;-74
2023/03/31 00:01:14;;;;;;;27.35;24.30;;;;;20.50;99417.00;;;;2084408;28;20691;-74
2023/03/31 00:02:14;;;;;;;28.50;24.17;;;;;20.50;99409.00;;;;2080278;28;20212;-74
2023/03/31 00:03:20;;;;;;;27.53;23.20;;;;;20.50;99409.00;;;;2087595;28;20233;-74
2023/03/31 00:04:22;;;;;;;26.77;23.88;;;;;20.50;99413.00;;;;2077547;28;20245;-74
2023/03/31 00:05:24;;;;;;;24.17;21.73;;;;;20.40;99406.00;;;;2079486;28;20217;-74
2023/03/31 00:06:24;;;;;;;25.05;22.48;;;;;20.50;99406.00;;;;2087395;28;20209;-74
2023/03/31 00:07:24;;;;;;;22.00;19.33;;;;;20.50;99405.00;;;;2084147;28;20209;-74
2023/03/31 00:08:28;;;;;;;24.40;21.83;;;;;20.50;99404.00;;;;2085214;28;20778;-74
2023/03/31 00:09:32;;;;;;;24.08;21.48;;;;;20.50;99399.00;;;;2085792;28;20594;-74
2023/03/31 00:10:32;;;;;;;24.15;20.65;;;;;20.50;99398.00;;;;2086961;28;20205;-74
2023/03/31 00:11:33;;;;;;;23.27;20.27;;;;;20.50;99395.00;;;;2085631;28;20213;-73
2023/03/31 00:12:33;;;;;;;21.90;19.60;;;;;20.50;99396.00;;;;2087153;28;20197;-74
2023/03/31 00:13:35;;;;;;;28.53;24.03;;;;;20.50;99385.00;;;;2085447;28;20206;-73
2023/03/31 00:14:35;;;;;;;22.27;19.65;;;;;20.50;99383.00;;;;2077809;28;20255;-73
2023/03/31 00:15:36;;;;;;;20.80;18.60;;;;;20.50;99383.00;;;;2074958;28;20206;-73
2023/03/31 00:16:36;;;;;;;24.50;19.87;;;;;20.50;99381.00;;;;2083914;28;20212;-74
2023/03/31 00:17:37;;;;;;;20.20;18.10;;;;;20.50;99377.00;;;;2074123;28;20715;-74
2023/03/31 00:18:39;;;;;;;22.20;19.93;;;;;20.50;99377.00;;;;2077010;28;20241;-74
2023/03/31 00:19:40;;;;;;;21.88;19.67;;;;;20.50;99371.00;;;;2087555;28;20263;-74
2023/03/31 00:20:41;;;;;;;22.73;19.90;;;;;20.50;99381.00;;;;2083080;28;20279;-74
2023/03/31 00:21:42;;;;;;;21.65;18.98;;;;;20.50;99373.00;;;;2085627;28;20501;-74
2023/03/31 00:22:45;;;;;;;18.93;16.93;;;;;20.50;99368.00;;;;2074056;28;20253;-74
2023/03/31 00:23:45;;;;;;;20.83;18.42;;;;;20.50;99372.00;;;;2075937;28;20503;-74
2023/03/31 00:24:46;;;;;;;20.87;18.50;;;;;20.20;99364.00;;;;2087309;28;20209;-74
2023/03/31 00:25:46;;;;;;;20.17;17.27;;;;;20.50;99366.00;;;;2077365;28;20214;-74
2023/03/31 00:26:46;;;;;;;19.43;17.43;;;;;20.50;99368.00;;;;2076018;28;20217;-75
2023/03/31 00:27:49;;;;;;;18.87;16.93;;;;;20.50;99375.00;;;;2083328;28;20201;-75
2023/03/31 00:28:50;;;;;;;20.27;18.17;;;;;20.50;99362.00;;;;2086504;28;20221;-75
2023/03/31 00:29:51;;;;;;;21.13;17.97;;;;;20.50;99367.00;;;;2068924;28;20225;-75
2023/03/31 00:30:52;;;;;;;18.85;15.98;;;;;20.40;99354.00;;;;2077243;28;20479;-74
2023/03/31 00:31:53;;;;;;;18.60;16.60;;;;;20.40;99353.00;;;;2087156;28;20232;-75
2023/03/31 00:32:54;;;;;;;18.70;16.70;;;;;20.40;99353.00;;;;2086168;28;20308;-75
2023/03/31 00:33:54;;;;;;;17.03;15.27;;;;;20.40;99346.00;;;;2087219;28;20217;-75
2023/03/31 00:34:55;;;;;;;16.87;15.13;;;;;20.40;99351.00;;;;2082873;28;20241;-75
2023/03/31 00:35:55;;;;;;;17.97;16.00;;;;;20.40;99357.00;;;;2080772;28;20249;-75
2023/03/31 00:36:56;;;;;;;17.17;15.33;;;;;20.40;99351.00;;;;2085105;28;20213;-75
2023/03/31 00:37:57;;;;;;;17.55;15.32;;;;;20.40;99344.00;;;;2086165;28;20582;-74
2023/03/31 00:38:59;;;;;;;17.50;15.65;;;;;20.40;99347.00;;;;2087323;28;20644;-75
2023/03/31 00:40:00;;;;;;;16.05;14.25;;;;;20.40;99318.00;;;;2084192;28;20213;-75
2023/03/31 00:41:00;;;;;;;17.13;14.83;;;;;20.40;99337.00;;;;2078049;28;20968;-75
2023/03/31 00:42:02;;;;;;;16.83;14.97;;;;;20.40;99329.00;;;;2074018;28;20225;-75
2023/03/31 00:43:02;;;;;;;14.77;12.88;;;;;20.40;99332.00;;;;2074318;28;20727;-74
2023/03/31 00:44:07;;;;;;;18.07;16.20;;;;;20.40;99337.00;;;;2063317;28;20218;-74
2023/03/31 00:45:14;;;;;;;16.40;14.65;;;;;20.40;99323.00;;;;2077576;28;20244;-75
2023/03/31 00:46:19;;;;;;;14.80;13.23;;;;;20.40;99328.00;;;;2080939;28;20213;-74
2023/03/31 00:47:19;;;;;;;17.63;15.65;;;;;20.40;99332.00;;;;2068633;28;20218;-75
2023/03/31 00:48:20;;;;;;;16.60;14.80;;;;;20.40;99323.00;;;;2069329;28;20222;-74
2023/03/31 00:49:29;;;;;;;15.77;13.20;;;;;20.40;99317.00;;;;2082823;28;20456;-75
2023/03/31 00:50:34;;;;;;;17.40;13.85;;;;;20.40;99319.00;;;;2076859;28;20221;-75
2023/03/31 00:51:35;;;;;;;15.60;13.00;;;;;20.40;99305.00;;;;2070392;28;20224;-74
2023/03/31 00:52:36;;;;;;;13.83;12.43;;;;;20.40;99294.00;;;;2063494;28;20705;-75
2023/03/31 00:53:36;;;;;;;15.45;13.90;;;;;20.40;99308.00;;;;2060935;28;20207;-74
2023/03/31 00:54:37;;;;;;;13.47;12.03;;;;;20.40;99316.00;;;;2067980;28;20773;-75
2023/03/31 00:55:41;;;;;;;14.37;12.87;;;;;20.40;99300.00;;;;2075469;28;20244;-75
2023/03/31 00:56:42;;;;;;;14.60;12.30;;;;;20.40;99307.00;;;;2070574;28;20206;-75
2023/03/31 00:57:43;;;;;;;14.00;11.65;;;;;20.40;99309.00;;;;2063700;28;20206;-75
2023/03/31 00:58:43;;;;;;;16.60;13.37;;;;;20.40;99287.00;;;;2070841;28;20214;-75
2023/03/31 00:59:49;;;;;;;12.67;11.40;;;;;20.40;99289.00;;;;2079879;28;20435;-75
2023/03/31 01:00:51;;;;;;;14.95;12.93;;;;;20.40;99291.00;;;;2071388;28;20210;-75
2023/03/31 01:01:51;;;;;;;13.57;12.15;;;;;20.40;99293.00;;;;2069143;28;20229;-75
2023/03/31 01:02:56;;;;;;;12.17;10.97;;;;;20.30;99294.00;;;;2071161;28;20226;-75
2023/03/31 01:03:58;;;;;;;13.25;11.85;;;;;20.40;99296.00;;;;2064165;28;20222;-75
2023/03/31 01:05:00;;;;;;;14.73;13.02;;;;;20.40;99286.00;;;;2069379;28;20305;-75
2023/03/31 01:06:03;;;;;;;12.55;11.25;;;;;20.40;99285.00;;;;2071328;28;20214;-72
2023/03/31 01:07:41;;;;;;;13.18;11.80;;;;;20.40;99282.00;;;;2069161;28;20685;-74
2023/03/31 01:08:41;;;;;;;12.27;10.35;;;;;20.40;99277.00;;;;2071263;28;20282;-75
2023/03/31 01:09:46;;;;;;;12.13;10.87;;;;;20.40;99280.00;;;;2087735;28;20225;-74
2023/03/31 01:10:48;;;;;;;14.85;12.98;;;;;20.40;99265.00;;;;2079616;28;20206;-75
2023/03/31 01:11:48;;;;;;;12.60;10.93;;;;;20.40;99281.00;;;;2063389;28;20203;-75
2023/03/31 01:12:51;;;;;;;15.63;11.27;;;;;20.40;99277.00;;;;2068575;28;20225;-75
2023/03/31 01:13:52;;;;;;;11.05;9.93;;;;;20.40;99267.00;;;;2070870;28;20228;-75
2023/03/31 01:14:52;;;;;;;10.97;9.40;;;;;20.40;99272.00;;;;2069220;28;20588;-75
2023/03/31 01:15:52;;;;;;;13.00;10.67;;;;;20.40;99261.00;;;;2068923;28;20990;-75
2023/03/31 01:16:53;;;;;;;11.77;10.57;;;;;20.40;99264.00;;;;2070392;28;20215;-75
2023/03/31 01:17:54;;;;;;;11.33;9.30;;;;;20.40;99270.00;;;;2088053;28;20217;-75
2023/03/31 01:18:56;;;;;;;11.48;10.15;;;;;20.40;99261.00;;;;2076498;28;20309;-75
2023/03/31 01:20:10;;;;;;;12.57;10.20;;;;;20.40;99263.00;;;;2079982;28;20230;-75
2023/03/31 01:21:30;;;;;;;11.50;10.30;;;;;20.40;99255.00;;;;2080927;28;20758;-75
2023/03/31 01:22:58;;;;;;;10.05;9.05;;;;;20.30;99252.00;;;;2079094;28;20641;-73
2023/03/31 01:24:27;;;;;;;13.20;10.27;;;;;20.30;99242.00;;;;2067921;28;20226;-75
2023/03/31 01:25:49;;;;;;;11.05;9.13;;;;;20.40;99243.00;;;;2078787;28;20213;-75
2023/03/31 01:26:56;;;;;;;10.45;9.00;;;;;20.30;99250.00;;;;2086640;28;20307;-75
2023/03/31 01:28:26;;;;;;;12.40;9.50;;;;;20.30;99250.00;;;;2078771;28;20257;-75
2023/03/31 01:29:57;;;;;;;10.00;8.45;;;;;20.30;99244.00;;;;2069160;28;20681;-75
2023/03/31 01:31:22;;;;;;;11.05;8.75;;;;;20.30;99246.00;;;;2076749;28;20654;-75
2023/03/31 01:32:41;;;;;;;9.88;8.07;;;;;20.30;99242.00;;;;2072873;28;20214;-75
2023/03/31 01:34:11;;;;;;;10.13;8.38;;;;;20.40;99246.00;;;;2082867;28;20209;-75
2023/03/31 01:35:29;;;;;;;10.02;8.32;;;;;20.10;99241.00;;;;2075418;28;20619;-75
2023/03/31 01:36:45;;;;;;;10.00;8.05;;;;;20.30;99253.00;;;;2082239;28;20311;-75
2023/03/31 01:38:07;;;;;;;10.20;8.30;;;;;20.30;99238.00;;;;2078093;28;20209;-75
2023/03/31 01:39:45;;;;;;;9.07;7.60;;;;;20.30;99237.00;;;;2082121;28;20299;-75
2023/03/31 01:40:51;;;;;;;8.25;7.35;;;;;20.30;99229.00;;;;2087322;28;20205;-75
2023/03/31 01:42:01;;;;;;;9.68;7.68;;;;;20.30;99229.00;;;;2088145;28;20698;-76
2023/03/31 01:43:04;;;;;;;9.43;7.10;;;;;20.30;99226.00;;;;2078488;28;20221;-75
2023/03/31 01:44:24;;;;;;;7.32;6.53;;;;;20.30;99215.00;;;;2071572;28;20214;-75
2023/03/31 01:45:50;;;;;;;12.13;7.25;;;;;20.30;99216.00;;;;2066811;28;20702;-75
2023/03/31 01:46:53;;;;;;;9.02;6.78;;;;;20.30;99218.00;;;;2069505;28;20213;-74
2023/03/31 01:47:58;;;;;;;8.23;7.00;;;;;20.30;99217.00;;;;2069712;28;20321;-75
2023/03/31 01:49:09;;;;;;;7.40;6.60;;;;;20.30;99209.00;;;;2064603;28;21228;-75
2023/03/31 01:50:24;;;;;;;7.00;6.30;;;;;20.30;99214.00;;;;2080327;28;20688;-75
2023/03/31 01:51:38;;;;;;;7.97;6.78;;;;;20.30;99210.00;;;;2077227;28;20228;-75
2023/03/31 01:53:05;;;;;;;7.68;6.70;;;;;20.30;99215.00;;;;2070267;28;20206;-75
2023/03/31 01:54:54;;;;;;;8.60;6.60;;;;;20.30;99206.00;;;;2076408;28;20213;-75
2023/03/31 01:56:12;;;;;;;8.27;6.45;;;;;20.30;99193.00;;;;2052538;28;20287;-75
2023/03/31 01:57:33;;;;;;;7.90;6.70;;;;;20.30;99196.00;;;;2078323;28;20209;-75
2023/03/31 01:58:35;;;;;;;7.20;5.88;;;;;20.30;99202.00;;;;2078127;28;20302;-74
2023/03/31 01:59:39;;;;;;;7.70;6.28;;;;;20.30;99207.00;;;;2081031;28;20751;-75
2023/03/31 02:00:41;;;;;;;7.72;6.50;;;;;20.30;99202.00;;;;2065220;28;20270;-75
2023/03/31 02:01:46;;;;;;;7.72;6.55;;;;;20.30;99195.00;;;;2063646;28;20725;-75
2023/03/31 02:02:48;;;;;;;7.85;6.60;;;;;20.30;99197.00;;;;2067200;28;20239;-75
2023/03/31 02:03:53;;;;;;;7.72;6.30;;;;;20.30;99184.00;;;;2071555;28;20213;-76
2023/03/31 02:05:01;;;;;;;6.25;5.03;;;;;20.30;99176.00;;;;2067080;28;20567;-75
2023/03/31 02:06:11;;;;;;;6.22;5.60;;;;;20.30;99174.00;;;;2064433;28;20219;-75
2023/03/31 02:07:16;;;;;;;6.85;6.15;;;;;20.30;99175.00;;;;2059523;28;20215;-75
2023/03/31 02:08:20;;;;;;;7.88;5.82;;;;;20.30;99181.00;;;;2056377;28;20592;-75
2023/03/31 02:09:26;;;;;;;5.40;4.90;;;;;20.30;99180.00;;;;2057176;28;20219;-75
2023/03/31 02:10:26;;;;;;;6.43;5.47;;;;;20.30;99172.00;;;;2058493;28;20223;-75
2023/03/31 02:11:27;;;;;;;6.83;5.60;;;;;20.30;99162.00;;;;2060991;28;21115;-75
2023/03/31 02:12:29;;;;;;;7.70;6.90;;;;;20.30;99170.00;;;;2054054;28;20295;-75
2023/03/31 02:13:30;;;;;;;7.85;6.15;;;;;20.30;99164.00;;;;2068733;28;20257;-74
2023/03/31 02:14:31;;;;;;;8.38;6.10;;;;;20.30;99159.00;;;;2070387;28;20241;-75
2023/03/31 02:15:37;;;;;;;6.17;5.00;;;;;20.30;99158.00;;;;2063226;28;20207;-75
2023/03/31 02:16:40;;;;;;;6.13;5.25;;;;;20.30;99142.00;;;;2063254;28;20222;-75
2023/03/31 02:17:41;;;;;;;6.07;5.00;;;;;20.30;99147.00;;;;2059553;28;20207;-75
2023/03/31 02:18:41;;;;;;;7.47;5.73;;;;;20.30;99153.00;;;;2058837;28;20214;-75
2023/03/31 02:19:41;;;;;;;5.77;5.00;;;;;20.30;99136.00;;;;2065250;28;20241;-75
2023/03/31 02:20:42;;;;;;;7.57;5.63;;;;;20.30;99147.00;;;;2062450;28;20207;-74
2023/03/31 02:21:42;;;;;;;5.93;5.23;;;;;20.30;99140.00;;;;2061767;28;20843;-75
2023/03/31 02:22:45;;;;;;;6.10;4.80;;;;;20.30;99150.00;;;;2074924;28;20202;-74
2023/03/31 02:23:45;;;;;;;7.65;5.47;;;;;20.30;99137.00;;;;2065971;28;20217;-75
2023/03/31 02:24:46;;;;;;;6.53;4.60;;;;;20.30;99140.00;;;;2062914;28;20583;-76
2023/03/31 02:25:49;;;;;;;6.40;4.83;;;;;20.30;99139.00;;;;2067912;28;20547;-75
2023/03/31 02:26:54;;;;;;;7.43;5.43;;;;;20.30;99133.00;;;;2054266;28;20229;-75
2023/03/31 02:27:59;;;;;;;6.78;5.28;;;;;20.30;99133.00;;;;2067891;28;20997;-76
2023/03/31 02:29:00;;;;;;;6.43;4.45;;;;;20.20;99128.00;;;;2064171;28;20225;-75
2023/03/31 02:30:00;;;;;;;5.13;4.30;;;;;20.20;99121.00;;;;2067643;28;20270;-75
2023/03/31 02:31:08;;;;;;;5.90;5.10;;;;;20.20;99127.00;;;;2064625;28;20215;-75
2023/03/31 02:32:13;;;;;;;6.90;4.97;;;;;20.30;99114.00;;;;2065825;28;20225;-75
2023/03/31 02:33:15;;;;;;;7.38;4.68;;;;;20.20;99112.00;;;;2070873;28;20210;-75
2023/03/31 02:34:15;;;;;;;6.45;4.95;;;;;20.20;99121.00;;;;2070725;28;20210;-75
2023/03/31 02:35:17;;;;;;;5.77;4.23;;;;;20.20;99043.00;;;;2071024;28;20221;-75
2023/03/31 02:36:18;;;;;;;5.25;4.35;;;;;20.20;99121.00;;;;2078866;28;20236;-75
2023/03/31 02:37:18;;;;;;;4.90;4.40;;;;;20.20;99120.00;;;;2071150;28;20226;-75
2023/03/31 02:38:18;;;;;;;6.07;4.67;;;;;20.20;99102.00;;;;2069839;28;20237;-75
2023/03/31 02:39:22;;;;;;;5.80;4.50;;;;;20.20;99100.00;;;;2069877;28;20230;-75
2023/03/31 02:40:26;;;;;;;4.70;3.70;;;;;20.20;99106.00;;;;2069381;28;20341;-75
2023/03/31 02:41:26;;;;;;;4.43;3.72;;;;;20.20;99099.00;;;;2072052;28;20268;-75
2023/03/31 02:42:27;;;;;;;5.13;3.60;;;;;20.20;99100.00;;;;2086946;28;20297;-75
2023/03/31 02:43:27;;;;;;;5.20;4.23;;;;;20.20;99096.00;;;;2079152;28;20257;-75
2023/03/31 02:44:27;;;;;;;5.27;4.43;;;;;20.20;99089.00;;;;2072078;28;20268;-75
2023/03/31 02:45:40;;;;;;;6.03;4.53;;;;;20.20;99085.00;;;;2082115;28;20240;-75
2023/03/31 02:46:41;;;;;;;6.25;3.90;;;;;20.20;99087.00;;;;2087689;28;20209;-75
2023/03/31 02:47:41;;;;;;;5.13;3.80;;;;;20.20;99073.00;;;;2077995;28;20279;-75
2023/03/31 02:48:44;;;;;;;6.17;4.27;;;;;20.20;99082.00;;;;2075167;28;20324;-75
2023/03/31 02:49:50;;;;;;;4.05;3.65;;;;;20.20;99064.00;;;;2070149;28;20213;-75
2023/03/31 02:51:28;;;;;;;3.80;3.40;;;;;20.20;99069.00;;;;2068839;28;20678;-75
2023/03/31 02:52:50;;;;;;;4.82;3.88;;;;;20.20;99061.00;;;;2083153;28;20229;-75
2023/03/31 02:54:11;;;;;;;4.80;3.80;;;;;20.20;99060.00;;;;2078814;28;20618;-75
2023/03/31 02:55:29;;;;;;;5.47;3.75;;;;;20.20;99052.00;;;;2070941;28;20354;-75
2023/03/31 02:56:35;;;;;;;5.47;4.13;;;;;20.20;99053.00;;;;2079901;28;20217;-75
2023/03/31 02:57:55;;;;;;;4.18;3.20;;;;;20.20;99036.00;;;;2078704;28;20574;-74
2023/03/31 02:59:32;;;;;;;5.55;3.78;;;;;20.20;99041.00;;;;2075852;28;20236;-75
2023/03/31 03:01:10;;;;;;;4.78;2.97;;;;;20.20;99029.00;;;;2079879;28;20212;-75
2023/03/31 03:02:43;;;;;;;4.85;3.38;;;;;20.20;99036.00;;;;2085758;28;20209;-74
2023/03/31 03:03:55;;;;;;;4.28;3.15;;;;;20.20;99025.00;;;;2084069;28;20236;-74
2023/03/31 03:05:01;;;;;;;4.38;3.30;;;;;20.20;99016.00;;;;2083997;28;20683;-75
2023/03/31 03:06:17;;;;;;;5.50;3.10;;;;;20.20;99018.00;;;;2087700;28;20234;-75
2023/03/31 03:07:25;;;;;;;4.07;3.33;;;;;20.20;99023.00;;;;2067733;28;20217;-75
2023/03/31 03:08:54;;;;;;;3.95;3.55;;;;;20.20;99015.00;;;;2058937;28;20227;-75
2023/03/31 03:09:54;;;;;;;5.65;3.65;;;;;20.20;99010.00;;;;2077676;28;20221;-75
2023/03/31 03:10:57;;;;;;;4.70;3.30;;;;;20.20;99006.00;;;;2087708;28;20739;-75
2023/03/31 03:12:11;;;;;;;4.75;2.90;;;;;20.20;99020.00;;;;2081422;28;20687;-75
2023/03/31 03:13:34;;;;;;;4.97;3.40;;;;;20.20;99012.00;;;;2078126;28;20691;-75
2023/03/31 03:14:36;;;;;;;4.38;2.90;;;;;20.20;99015.00;;;;2068728;28;20214;-74
2023/03/31 03:15:43;;;;;;;3.60;2.85;;;;;20.20;98990.00;;;;2078813;28;20201;-74
2023/03/31 03:16:47;;;;;;;4.32;2.95;;;;;20.20;98999.00;;;;2071622;28;20211;-75
2023/03/31 03:17:47;;;;;;;4.55;2.85;;;;;20.20;98987.00;;;;2075396;28;20201;-75
2023/03/31 03:18:57;;;;;;;7.17;3.33;;;;;20.20;98990.00;;;;2068607;28;20211;-75
2023/03/31 03:20:01;;;;;;;3.92;3.00;;;;;20.20;98990.00;;;;2079524;28;20221;-75
2023/03/31 03:21:01;;;;;;;5.28;3.03;;;;;20.20;98986.00;;;;2087574;28;20299;-75
2023/03/31 03:22:02;;;;;;;3.77;2.77;;;;;20.20;98982.00;;;;2086208;28;20220;-75
2023/03/31 03:23:02;;;;;;;4.57;3.17;;;;;20.20;98973.00;;;;2078893;28;20605;-75
2023/03/31 03:24:02;;;;;;;4.90;2.80;;;;;20.20;98966.00;;;;2077393;28;20267;-75
2023/03/31 03:25:04;;;;;;;5.60;3.03;;;;;20.20;98968.00;;;;2087113;28;20213;-73
2023/03/31 03:26:04;;;;;;;4.15;2.60;;;;;20.20;98958.00;;;;2087402;28;20209;-75
2023/03/31 03:27:05;;;;;;;3.17;2.60;;;;;20.20;98949.00;;;;2081725;28;20293;-75
2023/03/31 03:28:06;;;;;;;3.10;2.40;;;;;20.20;98888.00;;;;2086823;28;20216;-75
2023/03/31 03:29:06;;;;;;;3.90;2.80;;;;;20.20;98958.00;;;;2077646;28;20229;-75
2023/03/31 03:30:08;;;;;;;3.80;2.80;;;;;20.20;98980.00;;;;2078671;28;20201;-74
2023/03/31 03:31:09;;;;;;;4.40;2.67;;;;;20.20;98970.00;;;;2077777;28;20252;-75
2023/03/31 03:32:09;;;;;;;4.60;2.90;;;;;20.20;98964.00;;;;2078445;28;20341;-75
2023/03/31 03:33:15;;;;;;;3.77;2.40;;;;;20.20;98971.00;;;;2078613;28;20677;-74
2023/03/31 03:34:17;;;;;;;4.55;2.25;;;;;20.20;98964.00;;;;2077566;28;20205;-75
2023/03/31 03:35:17;;;;;;;5.10;3.00;;;;;20.20;98965.00;;;;2085242;28;20566;-75
2023/03/31 03:36:18;;;;;;;4.70;2.80;;;;;20.20;98957.00;;;;2086680;28;20228;-75
2023/03/31 03:37:18;;;;;;;3.67;2.60;;;;;20.20;98955.00;;;;2087518;28;20225;-75
2023/03/31 03:38:18;;;;;;;4.63;3.30;;;;;20.20;98957.00;;;;2077642;28;22128;-75
2023/03/31 03:39:19;;;;;;;3.13;2.30;;;;;20.20;98943.00;;;;2077580;28;20232;-75
2023/03/31 03:40:19;;;;;;;4.43;2.53;;;;;20.20;98931.00;;;;2086244;28;20256;-75
2023/03/31 03:41:20;;;;;;;2.70;2.20;;;;;20.20;98926.00;;;;2086944;28;20221;-75
2023/03/31 03:42:20;;;;;;;3.63;2.40;;;;;20.20;98933.00;;;;2087184;28;20231;-75
2023/03/31 03:43:20;;;;;;;3.30;2.37;;;;;20.20;98943.00;;;;2086613;28;20220;-74
2023/03/31 03:44:21;;;;;;;3.20;2.23;;;;;20.20;98943.00;;;;2087474;28;20232;-74
2023/03/31 03:45:21;;;;;;;3.70;2.47;;;;;20.10;98935.00;;;;2086470;28;20244;-75
2023/03/31 03:46:21;;;;;;;3.63;2.27;;;;;20.20;98937.00;;;;2085779;28;20215;-75
2023/03/31 03:47:21;;;;;;;3.60;2.63;;;;;20.10;98931.00;;;;2080743;28;20205;-75
2023/03/31 03:48:22;;;;;;;3.57;2.40;;;;;20.20;98936.00;;;;2085091;28;20235;-75
2023/03/31 03:49:22;;;;;;;3.60;2.30;;;;;20.20;98915.00;;;;2079917;28;21188;-75
2023/03/31 03:50:22;;;;;;;3.20;2.40;;;;;20.10;98943.00;;;;2084300;28;20685;-75
2023/03/31 03:51:23;;;;;;;3.43;2.30;;;;;20.10;98922.00;;;;2085481;28;20554;-75
2023/03/31 03:52:23;;;;;;;3.60;2.50;;;;;20.10;98912.00;;;;2072568;28;20870;-75
2023/03/31 03:53:23;;;;;;;2.60;2.30;;;;;20.10;98913.00;;;;2077096;28;20668;-75
2023/03/31 03:54:24;;;;;;;4.23;2.93;;;;;20.10;98911.00;;;;2072329;28;20276;-75
2023/03/31 03:55:24;;;;;;;3.47;2.27;;;;;20.20;98908.00;;;;2077756;28;20209;-75
2023/03/31 03:56:25;;;;;;;3.60;2.10;;;;;20.10;98897.00;;;;2087131;28;20573;-75
2023/03/31 03:57:25;;;;;;;3.00;2.30;;;;;20.10;98907.00;;;;2086223;28;20738;-74
2023/03/31 03:58:26;;;;;;;4.07;2.00;;;;;20.20;98921.00;;;;2087229;28;20212;-75
2023/03/31 03:59:26;;;;;;;3.67;2.30;;;;;20.20;98921.00;;;;2086320;28;20209;-74
2023/03/31 04:00:26;;;;;;;3.43;2.07;;;;;20.20;98919.00;;;;2085434;28;20213;-75
2023/03/31 04:01:27;;;;;;;4.23;2.33;;;;;20.20;98916.00;;;;2087069;28;20223;-75
2023/03/31 04:02:27;;;;;;;3.43;1.87;;;;;20.20;98905.00;;;;2084046;28;20209;-75
2023/03/31 04:03:27;;;;;;;3.60;2.10;;;;;20.10;98911.00;;;;2081761;28;20286;-75
2023/03/31 04:04:28;;;;;;;3.97;2.40;;;;;20.20;98913.00;;;;2085095;28;20208;-75
2023/03/31 04:05:28;;;;;;;5.33;2.70;;;;;20.20;98912.00;;;;2082818;28;20223;-75
2023/03/31 04:06:28;;;;;;;2.97;1.60;;;;;20.20;98900.00;;;;2085000;28;20212;-75
2023/03/31 04:07:29;;;;;;;4.50;2.27;;;;;20.10;98889.00;;;;2083527;28;20228;-75
2023/03/31 04:08:29;;;;;;;5.17;2.33;;;;;20.10;98887.00;;;;2081817;28;20225;-75
2023/03/31 04:09:30;;;;;;;3.60;2.00;;;;;20.20;98877.00;;;;2084817;28;20756;-74
2023/03/31 04:10:30;;;;;;;5.90;2.07;;;;;20.10;98879.00;;;;2085273;28;20703;-71
2023/03/31 04:11:30;;;;;;;2.20;1.87;;;;;20.20;98885.00;;;;2084552;28;20261;-71
2023/03/31 04:12:33;;;;;;;3.77;2.00;;;;;20.10;98863.00;;;;2081294;28;20209;-70
2023/03/31 04:13:33;;;;;;;3.50;2.50;;;;;20.10;98868.00;;;;2080173;28;20213;-74
2023/03/31 04:14:34;;;;;;;4.57;1.93;;;;;20.20;98826.00;;;;2086457;28;20628;-73
2023/03/31 04:15:34;;;;;;;3.70;2.00;;;;;20.20;98854.00;;;;2087543;28;20677;-70
2023/03/31 04:16:35;;;;;;;3.87;2.33;;;;;20.20;98852.00;;;;2084201;28;20656;-68
2023/03/31 04:17:35;;;;;;;5.57;2.20;;;;;20.20;98825.00;;;;2085748;28;20236;-73
2023/03/31 04:18:41;;;;;;;3.30;2.20;;;;;20.20;98849.00;;;;2087027;28;20205;-72
2023/03/31 04:19:41;;;;;;;3.75;1.70;;;;;20.20;98840.00;;;;2086389;28;20217;-71
2023/03/31 04:20:43;;;;;;;5.00;2.20;;;;;20.20;98851.00;;;;2087518;28;20201;-71
2023/03/31 04:21:44;;;;;;;5.38;3.30;;;;;20.20;98850.00;;;;2084105;28;20279;-70
2023/03/31 04:22:45;;;;;;;2.70;1.83;;;;;20.20;98826.00;;;;2082679;28;20190;-70
2023/03/31 04:23:46;;;;;;;3.03;1.85;;;;;20.20;98823.00;;;;2079788;28;20681;-69
2023/03/31 04:24:51;;;;;;;4.10;1.77;;;;;20.30;98853.00;;;;2082202;28;20248;-71
2023/03/31 04:25:52;;;;;;;5.03;2.25;;;;;20.20;98832.00;;;;2074675;28;20206;-70
2023/03/31 04:26:53;;;;;;;5.10;2.30;;;;;20.20;98843.00;;;;2078728;28;20209;-71
2023/03/31 04:27:53;;;;;;;2.80;1.80;;;;;20.20;98836.00;;;;2088798;28;20228;-71
2023/03/31 04:28:57;;;;;;;8.37;2.50;;;;;20.30;98863.00;;;;2087976;28;20256;-70
2023/03/31 04:29:57;;;;;;;5.65;2.13;;;;;20.20;98869.00;;;;2088976;28;20238;-72
2023/03/31 04:30:58;;;;;;;3.10;2.33;;;;;20.20;98842.00;;;;2088140;28;20209;-72
2023/03/31 04:31:58;;;;;;;3.93;2.03;;;;;20.20;98861.00;;;;2086990;28;20273;-72
2023/03/31 04:33:01;;;;;;;3.70;1.77;;;;;20.20;98858.00;;;;2089009;28;20216;-72
2023/03/31 04:34:05;;;;;;;4.82;2.10;;;;;20.20;98845.00;;;;2086946;28;20699;-71
2023/03/31 04:35:06;;;;;;;6.13;1.92;;;;;20.20;98838.00;;;;2083621;28;20233;-73
2023/03/31 04:36:18;;;;;;;3.63;1.87;;;;;20.20;98847.00;;;;2085367;28;20555;-72
2023/03/31 04:37:19;;;;;;;3.90;2.30;;;;;20.20;98836.00;;;;2081752;28;20221;-72
2023/03/31 04:38:21;;;;;;;5.27;1.80;;;;;20.20;98821.00;;;;2085608;28;20235;-71
2023/03/31 04:39:29;;;;;;;8.27;1.88;;;;;20.20;98810.00;;;;2087420;28;20205;-72
2023/03/31 04:40:29;;;;;;;3.15;1.80;;;;;20.20;98825.00;;;;2073419;28;20229;-81
2023/03/31 04:41:30;;;;;;;4.10;1.90;;;;;20.20;98801.00;;;;2078123;28;20233;-77
2023/03/31 04:42:30;;;;;;;3.10;1.80;;;;;20.20;98817.00;;;;2074295;28;20250;-79
2023/03/31 04:43:30;;;;;;;4.90;1.80;;;;;20.20;98735.00;;;;2067268;28;20293;-79
2023/03/31 04:44:31;;;;;;;3.70;1.67;;;;;20.20;98786.00;;;;2074556;28;20217;-78
2023/03/31 04:45:31;;;;;;;3.00;1.73;;;;;20.20;98818.00;;;;2085939;28;20219;-78
2023/03/31 04:46:32;;;;;;;3.47;1.77;;;;;20.20;98808.00;;;;2085912;28;20241;-78
2023/03/31 04:47:32;;;;;;;3.63;1.90;;;;;20.20;98803.00;;;;2066376;28;20217;-78
2023/03/31 04:48:33;;;;;;;5.13;1.80;;;;;20.20;98792.00;;;;2074144;28;20227;-78
2023/03/31 04:49:34;;;;;;;3.40;1.50;;;;;20.20;98800.00;;;;2083387;28;20232;-77
2023/03/31 04:50:35;;;;;;;4.75;1.90;;;;;20.20;98804.00;;;;2087786;28;20204;-78
2023/03/31 04:51:35;;;;;;;3.77;1.63;;;;;20.20;98805.00;;;;2084903;28;20571;-78
2023/03/31 04:52:36;;;;;;;5.77;2.10;;;;;20.20;98801.00;;;;2084321;28;20205;-78
2023/03/31 04:53:36;;;;;;;2.40;1.50;;;;;20.20;98800.00;;;;2085274;28;20285;-78
2023/03/31 04:54:37;;;;;;;3.70;1.63;;;;;20.20;98792.00;;;;2084054;28;20503;-79
2023/03/31 04:55:37;;;;;;;4.93;2.30;;;;;20.20;98791.00;;;;2085087;28;20217;-78
2023/03/31 04:56:38;;;;;;;5.23;3.00;;;;;20.20;98777.00;;;;2085069;28;20206;-78
2023/03/31 04:57:38;;;;;;;6.50;4.27;;;;;20.20;98777.00;;;;2085698;28;20216;-78
2023/03/31 04:58:38;;;;;;;7.50;6.07;;;;;20.20;98768.00;;;;2084859;28;20206;-77
2023/03/31 04:59:39;;;;;;;11.30;7.17;;;;;20.20;98769.00;;;;2081876;28;20267;-78
2023/03/31 05:00:39;;;;;;;14.40;10.87;;;;;20.20;98771.00;;;;2075591;28;20213;-78
2023/03/31 05:01:43;;;;;;;14.37;10.40;;;;;20.20;98764.00;;;;2077748;28;20622;-78
2023/03/31 05:02:44;;;;;;;16.00;13.73;;;;;20.20;98756.00;;;;2073285;28;20210;-77
2023/03/31 05:03:46;;;;;;;24.30;17.80;;;;;20.20;98741.00;;;;2076338;28;20230;-78
2023/03/31 05:04:46;;;;;;;21.20;17.38;;;;;20.20;98759.00;;;;2058565;28;20814;-78
2023/03/31 05:05:47;;;;;;;22.60;17.50;;;;;20.20;98763.00;;;;2061539;28;20203;-77
2023/03/31 05:06:47;;;;;;;28.83;20.90;;;;;20.20;98766.00;;;;2084679;28;20213;-78
2023/03/31 05:07:47;;;;;;;27.57;20.83;;;;;20.20;98757.00;;;;2086212;28;20204;-78
2023/03/31 05:08:48;;;;;;;30.03;21.47;;;;;20.20;98756.00;;;;2088153;28;20262;-77
2023/03/31 05:09:48;;;;;;;35.47;23.97;;;;;20.30;98746.00;;;;2084499;28;20217;-78
2023/03/31 05:10:48;;;;;;;31.60;22.00;;;;;20.30;98747.00;;;;2088561;28;20215;-78
2023/03/31 05:11:49;;;;;;;33.87;24.20;;;;;20.30;98731.00;;;;2083013;28;20210;-77
2023/03/31 05:12:49;;;;;;;33.00;24.60;;;;;20.40;98748.00;;;;2086115;28;20239;-78
2023/03/31 05:13:49;;;;;;;27.63;21.77;;;;;20.40;98741.00;;;;2086512;28;20208;-77
2023/03/31 05:14:50;;;;;;;32.87;23.53;;;;;20.40;98735.00;;;;2087562;28;20232;-78
2023/03/31 05:15:51;;;;;;;36.17;24.30;;;;;20.40;98725.00;;;;2088532;28;20266;-78
2023/03/31 05:16:51;;;;;;;30.88;23.25;;;;;20.40;98725.00;;;;2083885;28;20206;-78
2023/03/31 05:17:52;;;;;;;27.80;21.60;;;;;20.40;98724.00;;;;2081861;28;20233;-78
2023/03/31 05:18:53;;;;;;;30.90;22.53;;;;;20.50;98723.00;;;;2077104;28;20209;-77
2023/03/31 05:19:53;;;;;;;32.97;24.52;;;;;20.40;98693.00;;;;2079064;28;20198;-77